Terminal Aerodrome Forecast
Issued by NWS Sioux Falls, SD

Home | Current Version | Previous Version | Text Only | Print | Product List | Glossary Off
Versions: 1 2 3 4 5 6 7 8 9 10 11 12 13 14 15 16 17 18 19 20 21 22 23 24 25 26

000
FTUS43 KFSD 231122
TAFSUX
TAF
KSUX 231122Z 2312/2412 VRB02KT P6SM BCFG FEW200
     FM231300 11004KT P6SM FEW200
     FM232200 09007KT P6SM FEW200
     FM240600 07003KT P6SM SCT150=

USA.gov is the U.S. government's official web portal to all federal, state and local government web resources and services.